TAF KSBA
KSBA 080000Z 0800/0824 26006KT P6SM BKN025 BKN100 FM080300 VRB03KT P6SM BKN025 BKN100 FM081000 VRB03KT 6SM BR SCT025 BKN100 FM082000 21005KT 6SM BR BKN025 FM082200 27008KT 6SM BR BKN025=
METAR KSBA
WC KSBA
WS KSBA
WV KSBA